メインページ
METAR-TAF:

METAR-TAF

空港 :

チャーチル, マニトバ州, カナダ

緯度: 58-44N, 経度: 094-04W, 海抜: 28m

現時点の気象観測

当レポートは20分前の23:00(UTC)に作成
東/北東の風 7kt
気温 3°C
湿度 93%
気圧 1008 hPa
視程: 24.1km
高度900ftの雲はほとんどない
高度9000ftの曇り

METAR: CYYQ 272300Z 06007KT 15SM FEW009 OVC090 03/02 A2976 RMK SF2AC6 SLP083

時間: 18:20 (23:20 UTC)

予報

当レポートは1時間16分前の22:04(UTC)に作成
予報は27日の 22時(UTC)から 28日の 18時(UTC)まで有効
北東の風 10kt
視程: 10km
高度800ftの雲は散在している
高度9000ftの曇り
27日の 22時(UTC)から 28日の 04時(UTC)まで一時的に
高度800ftの千切れ雲あり
28日の 0400時(UTC)から
東/北東の風 12kt
視程: 10km
高度600ftの雲は散在している
高度1200ftの千切れ雲あり
高度3000ftの曇り
28日の 04時(UTC)から 28日の 08時(UTC)まで一時的に
視程: 6.4km
高度600ftの曇り
弱いにわか雨, 靄
28日の 0800時(UTC)から
東/北東の風 12kt
視程: 9.7km
高度800ftの曇り
28日の 08時(UTC)から 28日の 18時(UTC)まで一時的に
視程: 3.2km
高度400ftの曇り
小霧雨, 靄

TAF: CYYQ 272204Z 2722/2818 05010KT P6SM SCT008 OVC090 TEMPO 2722/2804 BKN008 FM280400 06012KT P6SM SCT006 BKN012 OVC030 TEMPO 2804/2808 4SM -SHRA BR OVC006 FM280800 07012KT 6SM BR OVC008 TEMPO 2808/2818 2SM -DZ BR OVC004 RMK NXT FCST BY 280000Z

4,000以上の空港の気象観測と天気予報(METAR報とTAF報)

利用可能な観測所は地図上に黄色い丸と赤い丸で示す。

丸の上にカーソルを重ねると観測所名を参照できる。

次にクリックすると気象観測と天気予報を参照できる。

マップの切り替え:黒色「×」印の緑ボタンをクリックして拡大、「-」印の緑ボタンをクリックして縮小、緑色の三角印をクリックして隣りの地図に切り替え


METAR-TAF: